Time;durP1;ratioP1;P1;durP2;ratioP2;P2;SDS_P1;SDS_P2;PMS_P1;PMS_P2;Temp;Humidity;BMP_temperature;BMP_pressure;BME280_temperature;BME280_humidity;BME280_pressure;Samples;Min_cycle;Max_cycle;Signal;HPM_P1;HPM_P2
2022/04/28 00:00:56;;;;;;;2.70;2.17;;;;;;;12.05;95.76;94955.91;4797411;29;20055;-72
2022/04/28 00:03:24;;;;;;;3.00;2.35;;;;;;;12.03;95.95;94957.97;4818876;29;20134;-72
2022/04/28 00:05:51;;;;;;;5.22;2.40;;;;;;;12.04;95.96;94958.75;4814056;29;20050;-72
2022/04/28 00:08:18;;;;;;;6.00;2.40;;;;;;;11.89;95.76;94935.78;4801772;29;20060;-72
2022/04/28 00:10:45;;;;;;;6.03;2.28;;;;;;;12.05;95.41;94961.13;4825919;29;20114;-72
2022/04/28 00:13:14;;;;;;;4.85;2.20;;;;;;;12.02;95.16;94960.81;4819509;29;20077;-73
2022/04/28 00:15:41;;;;;;;8.20;2.35;;;;;;;12.07;95.53;94967.94;4818353;29;20623;-72
2022/04/28 00:18:08;;;;;;;3.25;2.20;;;;;;;12.08;95.40;94974.72;4822194;29;20049;-72
2022/04/28 00:20:35;;;;;;;2.03;1.55;;;;;;;12.17;94.82;94978.53;4815225;29;20046;-72
2022/04/28 00:23:03;;;;;;;6.05;2.25;;;;;;;12.20;95.16;94980.69;4820454;29;20119;-71
2022/04/28 00:25:30;;;;;;;16.58;3.33;;;;;;;12.26;94.24;94982.31;4817509;29;20046;-71
2022/04/28 00:27:56;;;;;;;8.27;2.83;;;;;;;12.28;93.81;94985.53;4830231;29;20589;-71
2022/04/28 00:30:24;;;;;;;2.78;1.85;;;;;;;12.29;93.16;94975.84;4824689;29;20567;-71
2022/04/28 00:32:52;;;;;;;6.40;2.20;;;;;;;12.37;92.41;94989.31;4832529;29;20061;-72
2022/04/28 00:35:20;;;;;;;2.42;1.77;;;;;;;12.48;91.40;94985.03;4830162;29;20081;-72
2022/04/28 00:37:48;;;;;;;3.47;1.90;;;;;;;12.59;90.75;94988.59;4795652;29;20035;-72
2022/04/28 00:40:15;;;;;;;3.28;1.50;;;;;;;12.54;90.39;94978.06;4815511;29;20041;-72
2022/04/28 00:42:42;;;;;;;8.35;2.42;;;;;;;12.60;90.35;94987.53;4838888;29;20050;-72
2022/04/28 00:45:12;;;;;;;3.20;1.88;;;;;;;12.61;90.34;94978.69;4822224;29;20046;-72
2022/04/28 00:50:41;;;;;;;3.60;1.88;;;;;;;12.63;89.12;94976.63;4827720;29;20054;-71
2022/04/28 00:53:12;;;;;;;3.45;1.77;;;;;;;12.63;89.46;94985.25;4828743;29;20566;-70
2022/04/28 00:55:43;;;;;;;4.40;2.28;;;;;;;12.64;89.61;94988.66;4805201;29;20426;-72
2022/04/28 00:58:11;;;;;;;5.93;2.55;;;;;;;12.60;89.23;94982.31;4802087;29;20057;-72
2022/04/28 01:00:39;;;;;;;3.85;1.95;;;;;;;12.58;89.54;94994.84;4822813;29;20115;-72
2022/04/28 01:03:09;;;;;;;3.25;1.80;;;;;;;12.56;89.60;94987.22;4811664;29;20050;-72
2022/04/28 01:05:37;;;;;;;3.25;1.77;;;;;;;12.56;88.98;94984.63;4829081;29;20501;-72
2022/04/28 01:08:04;;;;;;;4.75;2.05;;;;;;;12.61;88.72;94989.16;4817968;29;20066;-72
2022/04/28 01:10:31;;;;;;;4.13;2.25;;;;;;;12.46;88.46;94981.06;4816881;29;20053;-72
2022/04/28 01:12:59;;;;;;;2.88;1.95;;;;;;;12.48;88.59;94994.69;4830593;29;20051;-72
2022/04/28 01:15:26;;;;;;;13.07;2.35;;;;;;;12.37;88.47;94989.31;4843535;29;20149;-72
2022/04/28 01:17:54;;;;;;;3.65;2.47;;;;;;;12.30;88.29;94975.63;4815822;29;20054;-72
2022/04/28 01:20:21;;;;;;;3.38;2.03;;;;;;;12.34;88.85;94984.56;4806288;29;20148;-72
2022/04/28 01:22:48;;;;;;;4.43;2.22;;;;;;;12.27;88.77;94994.38;4802552;29;20046;-72
2022/04/28 01:25:14;;;;;;;3.17;1.98;;;;;;;12.23;88.92;94993.28;4819235;29;20043;-72
2022/04/28 01:27:41;;;;;;;5.05;2.38;;;;;;;12.20;89.26;94998.97;4817840;29;20050;-71
2022/04/28 01:30:14;;;;;;;2.85;2.10;;;;;;;12.09;90.09;94992.78;4822762;29;20054;-71
2022/04/28 01:33:01;;;;;;;5.85;2.55;;;;;;;12.03;90.17;94984.06;4808577;29;20073;-71
2022/04/28 01:35:29;;;;;;;5.35;2.55;;;;;;;11.89;90.32;94982.75;4816855;29;20054;-71
2022/04/28 01:37:57;;;;;;;4.70;2.33;;;;;;;11.92;90.77;94992.75;4827652;29;20061;-72
2022/04/28 01:40:24;;;;;;;6.90;2.30;;;;;;;11.89;91.15;94993.19;4806883;29;20043;-72
2022/04/28 01:42:51;;;;;;;4.60;2.33;;;;;;;11.86;91.00;94996.25;4802822;29;20082;-72
2022/04/28 01:45:20;;;;;;;2.92;1.98;;;;;;;11.83;91.08;94999.38;4824691;29;20066;-70
2022/04/28 01:48:03;;;;;;;4.30;2.03;;;;;;;11.80;91.22;94989.38;4784663;29;20675;-74
2022/04/28 01:56:40;;;;;;;5.20;1.92;;;;;;;11.66;92.60;95000.09;4810452;29;20058;-72
2022/04/28 01:59:30;;;;;;;3.58;2.03;;;;;;;11.65;92.95;94997.75;4798341;29;20058;-72
2022/04/28 02:02:15;;;;;;;2.97;2.10;;;;;;;11.66;92.90;95005.31;4817861;29;20064;-73
2022/04/28 02:04:42;;;;;;;4.90;2.05;;;;;;;11.61;93.02;95007.84;4807092;29;20062;-72
2022/04/28 02:07:11;;;;;;;3.45;1.92;;;;;;;11.61;92.96;94992.19;4795568;29;20539;-72
2022/04/28 02:09:40;;;;;;;3.28;2.20;;;;;;;11.69;93.17;95001.47;4826512;29;20061;-72
2022/04/28 02:12:10;;;;;;;6.25;2.35;;;;;;;11.66;92.88;94994.88;4814750;29;20056;-72
2022/04/28 02:14:55;;;;;;;4.63;2.70;;;;;;;11.74;92.68;95006.78;4813224;29;20081;-71
2022/04/28 02:17:40;;;;;;;2.58;1.88;;;;;;;11.67;93.27;95012.13;4815367;29;20173;-72
2022/04/28 02:20:10;;;;;;;4.47;2.40;;;;;;;11.60;94.20;95008.06;4820397;29;20035;-72
2022/04/28 02:22:39;;;;;;;7.00;2.55;;;;;;;11.63;94.57;95016.22;4815510;29;20052;-71
2022/04/28 02:25:09;;;;;;;2.80;1.40;;;;;;;11.55;95.03;95016.59;4814247;29;20053;-72
2022/04/28 02:27:36;;;;;;;3.17;2.38;;;;;;;11.55;95.57;95011.38;4825935;29;20521;-71
2022/04/28 02:30:05;;;;;;;2.95;1.92;;;;;;;11.59;95.56;95009.88;4816310;29;20057;-72
2022/04/28 02:35:20;;;;;;;3.60;2.20;;;;;;;11.62;95.45;95012.03;4830674;29;20143;-72
2022/04/28 02:37:48;;;;;;;6.03;3.25;;;;;;;11.63;95.39;95021.44;4813789;29;20057;-72
2022/04/28 02:40:16;;;;;;;5.07;2.95;;;;;;;11.59;95.63;95025.53;4797032;29;20042;-72
2022/04/28 02:42:44;;;;;;;3.88;2.50;;;;;;;11.56;95.59;95026.00;4810938;29;20066;-72
2022/04/28 02:45:12;;;;;;;6.30;2.47;;;;;;;11.55;95.70;95024.41;4811980;29;20046;-71
2022/04/28 02:47:51;;;;;;;3.42;2.50;;;;;;;11.56;95.26;95020.78;4805843;29;20128;-73
2022/04/28 02:50:21;;;;;;;3.50;2.22;;;;;;;11.56;94.84;95026.00;4830766;29;20098;-73
2022/04/28 02:52:50;;;;;;;6.53;3.20;;;;;;;11.49;95.03;95020.13;4811716;29;20046;-73
2022/04/28 02:55:17;;;;;;;7.10;3.67;;;;;;;11.41;95.62;95033.53;4831227;29;20050;-73
2022/04/28 02:57:45;;;;;;;6.28;3.10;;;;;;;11.32;96.19;95020.03;4834235;29;20097;-73
2022/04/28 03:00:12;;;;;;;3.00;2.22;;;;;;;11.04;97.91;95023.41;4823339;29;20038;-72
2022/04/28 03:02:51;;;;;;;8.23;3.58;;;;;;;11.03;98.17;95037.44;4789763;29;20047;-71
2022/04/28 03:05:18;;;;;;;4.80;2.75;;;;;;;11.00;98.36;95037.88;4816557;29;20057;-71
2022/04/28 03:10:53;;;;;;;5.35;3.20;;;;;;;10.95;98.67;95029.94;4816942;29;20129;-72
2022/04/28 03:13:23;;;;;;;4.15;2.50;;;;;;;10.97;99.34;95048.78;4818706;29;20069;-72
2022/04/28 03:15:54;;;;;;;4.72;2.85;;;;;;;10.92;99.97;95046.06;4817182;29;20046;-72
2022/04/28 03:18:37;;;;;;;7.80;3.10;;;;;;;10.97;100.00;95051.41;4825213;29;20095;-72
2022/04/28 03:21:05;;;;;;;4.15;2.80;;;;;;;11.04;100.00;95054.69;4807746;29;20667;-72
2022/04/28 03:23:32;;;;;;;4.18;2.78;;;;;;;11.12;100.00;95051.69;4818236;29;20057;-72
2022/04/28 03:25:59;;;;;;;6.28;3.85;;;;;;;11.20;100.00;95053.97;4821040;29;20050;-72
2022/04/28 03:28:26;;;;;;;5.00;3.10;;;;;;;11.28;100.00;95051.00;4824981;29;20492;-72
2022/04/28 03:30:52;;;;;;;6.25;4.65;;;;;;;11.39;100.00;95059.03;4834089;29;20081;-72
2022/04/28 03:33:23;;;;;;;8.23;3.80;;;;;;;11.35;100.00;95044.88;4833394;29;20610;-72
2022/04/28 03:35:50;;;;;;;7.43;4.05;;;;;;;11.53;100.00;95062.97;4836063;29;20500;-72
2022/04/28 03:38:17;;;;;;;5.90;3.88;;;;;;;11.59;100.00;95067.25;4824026;29;20060;-72
2022/04/28 03:40:45;;;;;;;8.82;3.97;;;;;;;11.64;100.00;95063.97;4807398;29;20059;-72
2022/04/28 03:43:12;;;;;;;7.15;4.00;;;;;;;11.67;100.00;95079.97;4814964;29;20047;-72
2022/04/28 03:45:39;;;;;;;6.45;4.38;;;;;;;11.70;100.00;95077.91;4817214;29;20047;-72
2022/04/28 03:48:15;;;;;;;7.78;4.18;;;;;;;11.78;100.00;95080.16;4833229;29;20051;-71
2022/04/28 03:50:44;;;;;;;15.25;5.18;;;;;;;11.77;100.00;95079.34;4813509;29;20563;-72
2022/04/28 03:53:11;;;;;;;5.70;4.38;;;;;;;11.78;100.00;95085.38;4809520;29;20069;-72
2022/04/28 03:55:38;;;;;;;8.07;5.28;;;;;;;11.76;100.00;95087.44;4802089;29;20084;-72
2022/04/28 03:58:05;;;;;;;12.77;7.57;;;;;;;11.73;100.00;95077.44;4825568;29;20081;-72
2022/04/28 04:00:33;;;;;;;8.00;5.82;;;;;;;11.79;100.00;95076.50;4784753;29;20057;-72
2022/04/28 04:03:05;;;;;;;7.63;4.95;;;;;;;11.87;100.00;95086.59;4781653;29;20055;-72
2022/04/28 04:05:32;;;;;;;7.38;4.55;;;;;;;11.99;100.00;95087.38;4797981;29;20050;-72
2022/04/28 04:07:59;;;;;;;6.95;4.78;;;;;;;12.03;100.00;95088.50;4815911;29;20293;-72
2022/04/28 04:10:34;;;;;;;7.00;4.80;;;;;;;12.11;100.00;95094.38;4815203;29;20125;-71
2022/04/28 04:13:04;;;;;;;7.07;5.07;;;;;;;12.13;100.00;95087.09;4815768;29;20056;-72
2022/04/28 04:15:32;;;;;;;7.50;4.97;;;;;;;12.23;100.00;95095.13;4820267;29;20042;-72
2022/04/28 04:18:13;;;;;;;5.75;4.32;;;;;;;12.26;100.00;95086.78;4801348;29;20050;-73
2022/04/28 04:21:03;;;;;;;6.90;4.57;;;;;;;12.38;100.00;95090.13;4814598;29;20054;-73
2022/04/28 04:23:31;;;;;;;5.13;4.32;;;;;;;12.36;100.00;95076.53;4822084;29;20046;-74
2022/04/28 04:26:01;;;;;;;5.85;4.45;;;;;;;12.45;100.00;95089.22;4827784;29;20176;-74
2022/04/28 04:28:28;;;;;;;8.10;4.70;;;;;;;12.49;100.00;95095.53;4826335;29;20130;-71
2022/04/28 04:34:24;;;;;;;9.05;4.30;;;;;;;12.58;100.00;95099.34;4807334;29;20062;-72
2022/04/28 04:36:52;;;;;;;8.60;5.28;;;;;;;12.56;100.00;95096.19;4807968;29;20054;-71
2022/04/28 04:39:19;;;;;;;8.43;5.32;;;;;;;12.60;100.00;95094.66;4820697;29;20058;-71
2022/04/28 04:41:46;;;;;;;7.68;5.25;;;;;;;12.57;100.00;95087.31;4815335;29;20042;-71
2022/04/28 04:44:14;;;;;;;12.25;6.35;;;;;;;12.68;100.00;95109.19;4819146;29;20045;-71
2022/04/28 04:46:45;;;;;;;7.18;4.88;;;;;;;12.65;100.00;95100.00;4796823;29;20046;-71
2022/04/28 04:49:31;;;;;;;9.60;4.38;;;;;;;12.74;100.00;95103.00;4816564;29;20060;-71
2022/04/28 04:52:15;;;;;;;7.95;4.72;;;;;;;12.74;98.22;95114.25;4824264;29;20121;-71
2022/04/28 04:55:08;;;;;;;11.05;5.90;;;;;;;12.65;97.40;95110.44;4808570;29;20715;-71
2022/04/28 04:57:58;;;;;;;7.95;5.45;;;;;;;12.52;97.62;95115.97;4789998;29;20050;-71
2022/04/28 05:00:25;;;;;;;8.93;5.03;;;;;;;12.40;99.09;95111.59;4827870;29;20087;-71
2022/04/28 05:03:11;;;;;;;7.63;5.30;;;;;;;12.48;100.00;95115.66;4815984;29;20060;-71
2022/04/28 05:06:08;;;;;;;7.18;4.88;;;;;;;12.54;100.00;95117.31;4806509;29;20138;-71
2022/04/28 05:08:38;;;;;;;6.53;4.75;;;;;;;12.60;100.00;95118.19;4806222;29;20061;-71
2022/04/28 05:11:10;;;;;;;8.55;5.13;;;;;;;12.53;100.00;95112.31;4819763;29;20073;-72
2022/04/28 05:14:03;;;;;;;10.32;4.95;;;;;;;12.69;99.85;95126.44;4820899;29;20888;-72
2022/04/28 05:16:30;;;;;;;7.18;4.45;;;;;;;12.77;99.59;95129.47;4821988;29;20050;-72
2022/04/28 05:19:15;;;;;;;;;;;;;;;12.85;98.85;95130.09;4798135;29;20061;-72
2022/04/28 05:22:00;;;;;;;8.48;6.07;;;;;;;12.84;98.91;95138.94;4807951;29;19931;-72
2022/04/28 05:24:33;;;;;;;7.90;4.32;;;;;;;12.93;97.58;95142.78;4799028;29;20050;-72
2022/04/28 05:27:20;;;;;;;7.13;4.78;;;;;;;12.92;97.33;95143.81;4814102;29;20073;-73
2022/04/28 05:29:50;;;;;;;10.40;6.28;;;;;;;13.00;97.13;95148.66;4820791;29;20192;-72
2022/04/28 05:32:52;;;;;;;13.77;5.85;;;;;;;13.07;96.09;95136.22;4764371;30;20135;-72
2022/04/28 05:35:40;;;;;;;8.52;5.50;;;;;;;13.14;94.40;95143.88;4809709;29;20250;-72
2022/04/28 05:38:10;;;;;;;14.15;5.60;;;;;;;12.98;94.81;95143.66;4808536;29;20106;-72
2022/04/28 05:40:41;;;;;;;8.88;4.45;;;;;;;12.78;96.13;95131.06;4809620;29;20086;-73
2022/04/28 05:45:55;;;;;;;4.40;2.85;;;;;;;12.35;100.00;95148.09;4812927;29;20055;-72
2022/04/28 05:48:23;;;;;;;3.08;1.95;;;;;;;12.08;100.00;95141.81;4810366;29;20049;-72
2022/04/28 05:50:54;;;;;;;3.30;2.17;;;;;;;12.13;100.00;95149.75;4814656;29;20773;-73
2022/04/28 05:53:21;;;;;;;3.20;2.15;;;;;;;12.07;100.00;95155.91;4796606;29;20062;-73
2022/04/28 05:55:52;;;;;;;5.93;3.40;;;;;;;11.89;100.00;95154.22;4795411;29;20123;-72
2022/04/28 05:58:23;;;;;;;4.55;2.85;;;;;;;11.79;100.00;95157.41;4793608;29;20083;-72
2022/04/28 06:01:11;;;;;;;3.08;2.40;;;;;;;11.79;100.00;95165.22;4816153;29;20220;-72
2022/04/28 06:03:41;;;;;;;3.22;2.05;;;;;;;11.71;100.00;95163.00;4794032;29;20163;-72
2022/04/28 06:06:15;;;;;;;3.92;2.33;;;;;;;11.72;100.00;95159.34;4796961;29;20050;-72
2022/04/28 06:08:43;;;;;;;4.00;2.28;;;;;;;11.64;100.00;95156.06;4809749;29;20048;-72
2022/04/28 06:11:10;;;;;;;3.35;2.13;;;;;;;11.61;100.00;95158.34;4817544;29;20597;-72
2022/04/28 06:13:38;;;;;;;2.28;1.60;;;;;;;11.55;100.00;95141.00;4781200;29;20057;-72
2022/04/28 06:16:33;;;;;;;3.83;1.67;;;;;;;11.71;100.00;95157.78;4811294;29;20058;-73
2022/04/28 06:19:20;;;;;;;;;;;;;;;11.73;100.00;95155.72;4798350;29;20054;-73
2022/04/28 06:22:05;;;;;;;1.33;0.90;;;;;;;11.49;100.00;95160.97;4810528;29;19931;-73
2022/04/28 06:24:40;;;;;;;2.45;1.58;;;;;;;11.57;100.00;95163.22;4796494;29;20054;-72
2022/04/28 06:27:08;;;;;;;2.17;1.23;;;;;;;11.35;100.00;95164.84;4812820;29;20068;-73
2022/04/28 06:29:37;;;;;;;2.65;1.60;;;;;;;11.55;100.00;95174.91;4781056;29;20456;-73
2022/04/28 06:32:07;;;;;;;3.30;1.80;;;;;;;11.64;100.00;95171.72;4804476;29;20070;-74
2022/04/28 06:34:53;;;;;;;2.47;1.23;;;;;;;11.59;100.00;95158.56;4813819;29;20057;-73
2022/04/28 06:37:26;;;;;;;2.20;0.90;;;;;;;11.67;100.00;95166.06;4799502;29;20078;-72
2022/04/28 06:39:57;;;;;;;3.72;1.48;;;;;;;11.67;100.00;95173.88;4796536;29;20050;-73
2022/04/28 06:42:23;;;;;;;4.90;1.42;;;;;;;11.70;100.00;95167.41;4798948;29;20058;-72
2022/04/28 06:45:12;;;;;;;2.35;1.33;;;;;;;11.61;100.00;95174.81;4821084;29;20153;-72
2022/04/28 06:47:58;;;;;;;2.25;1.65;;;;;;;11.72;100.00;95175.00;4821953;29;20105;-72
2022/04/28 06:50:37;;;;;;;2.63;1.38;;;;;;;11.87;100.00;95183.16;4823250;29;20057;-72
2022/04/28 06:53:26;;;;;;;1.92;0.90;;;;;;;11.67;100.00;95147.78;4794160;29;20054;-71
2022/04/28 06:56:01;;;;;;;2.30;1.20;;;;;;;11.85;100.00;95185.22;4797042;29;20138;-71
2022/04/28 06:58:32;;;;;;;2.30;1.23;;;;;;;11.54;100.00;95181.16;4815536;29;20107;-71
2022/04/28 07:01:05;;;;;;;1.20;0.85;;;;;;;11.59;100.00;95197.69;4796600;29;20072;-71
2022/04/28 07:03:33;;;;;;;0.80;0.57;;;;;;;11.52;100.00;95202.22;4810024;29;20055;-70
2022/04/28 07:06:01;;;;;;;1.38;0.80;;;;;;;11.40;100.00;95202.25;4795199;29;20050;-70
2022/04/28 07:08:31;;;;;;;1.95;1.27;;;;;;;11.45;100.00;95196.34;4801474;29;20145;-71
2022/04/28 07:10:58;;;;;;;1.98;1.02;;;;;;;11.55;100.00;95207.00;4817208;29;20043;-71
2022/04/28 07:13:31;;;;;;;2.08;1.23;;;;;;;11.51;100.00;95200.66;4809981;29;20050;-71
2022/04/28 07:16:07;;;;;;;2.47;1.20;;;;;;;11.48;100.00;95195.91;4808177;29;20134;-70
2022/04/28 07:19:05;;;;;;;2.15;1.00;;;;;;;11.46;100.00;95196.13;4792575;29;20058;-70
2022/04/28 07:21:35;;;;;;;2.08;1.42;;;;;;;11.53;100.00;95197.84;4816692;29;20168;-71
2022/04/28 07:24:03;;;;;;;1.42;0.70;;;;;;;11.57;100.00;95199.75;4812221;29;20050;-71
2022/04/28 07:26:31;;;;;;;1.38;0.68;;;;;;;11.47;100.00;95209.97;4812426;29;20054;-71
2022/04/28 07:28:58;;;;;;;5.70;1.63;;;;;;;11.62;100.00;95207.69;4791906;29;20138;-72
2022/04/28 07:31:48;;;;;;;1.50;1.05;;;;;;;11.70;100.00;95208.34;4813187;29;20532;-72
2022/04/28 07:34:15;;;;;;;1.60;0.90;;;;;;;11.77;100.00;95209.03;4815419;29;20140;-72
2022/04/28 07:37:01;;;;;;;3.13;1.20;;;;;;;11.80;100.00;95224.25;4815464;29;20049;-72
2022/04/28 07:39:28;;;;;;;2.80;1.83;;;;;;;11.66;100.00;95221.06;4814681;29;20712;-71
2022/04/28 07:42:12;;;;;;;3.25;1.58;;;;;;;11.52;100.00;95212.66;4786508;29;20058;-71
2022/04/28 07:44:45;;;;;;;2.67;1.13;;;;;;;11.46;100.00;95208.38;4812971;29;20062;-71
2022/04/28 07:47:12;;;;;;;1.80;1.23;;;;;;;11.58;100.00;95217.00;4797683;29;20652;-71
2022/04/28 07:49:53;;;;;;;1.98;1.17;;;;;;;11.61;100.00;95206.13;4811153;29;20699;-72
2022/04/28 07:52:20;;;;;;;1.77;1.08;;;;;;;11.70;100.00;95208.34;4798893;29;20046;-70
2022/04/28 07:54:49;;;;;;;0.70;0.55;;;;;;;11.68;100.00;95205.97;4812564;29;20062;-71
2022/04/28 07:57:22;;;;;;;1.73;1.30;;;;;;;11.73;100.00;95210.53;4795543;29;20058;-71
2022/04/28 07:59:50;;;;;;;2.55;1.33;;;;;;;11.93;100.00;95223.25;4798259;29;20082;-71
2022/04/28 08:02:19;;;;;;;1.77;1.20;;;;;;;11.84;100.00;95194.06;4799127;29;20046;-70
2022/04/28 08:04:49;;;;;;;1.45;0.82;;;;;;;11.97;100.00;95230.34;4796618;29;20748;-70
2022/04/28 08:07:17;;;;;;;5.20;2.08;;;;;;;11.98;100.00;95226.75;4809834;29;20054;-71
2022/04/28 08:09:48;;;;;;;1.77;1.10;;;;;;;11.90;100.00;95200.97;4812649;29;20053;-70
2022/04/28 08:12:20;;;;;;;1.98;1.15;;;;;;;12.07;100.00;95229.78;4816197;29;20056;-70
2022/04/28 08:15:25;;;;;;;6.43;1.38;;;;;;;12.17;100.00;95234.41;4820878;29;20207;-70
2022/04/28 08:17:53;;;;;;;2.53;1.05;;;;;;;12.21;100.00;95235.56;4822920;29;20250;-70
2022/04/28 08:20:20;;;;;;;2.22;1.13;;;;;;;12.17;100.00;95239.63;4810147;29;20138;-70
2022/04/28 08:22:48;;;;;;;1.00;0.40;;;;;;;12.11;100.00;95245.78;4784208;29;20506;-70
2022/04/28 08:25:15;;;;;;;1.80;0.82;;;;;;;11.93;100.00;95244.91;4814585;29;20051;-70
2022/04/28 08:27:42;;;;;;;1.70;1.00;;;;;;;11.91;100.00;95252.16;4812085;29;20118;-70
2022/04/28 08:30:11;;;;;;;1.83;1.15;;;;;;;11.79;100.00;95243.53;4793396;29;20137;-70
2022/04/28 08:32:38;;;;;;;2.70;1.58;;;;;;;11.82;100.00;95249.06;4804383;29;20104;-70
2022/04/28 08:35:05;;;;;;;1.52;1.30;;;;;;;11.91;100.00;95252.16;4817603;29;20055;-70
2022/04/28 08:37:33;;;;;;;5.63;1.25;;;;;;;11.88;100.00;95242.16;4782336;29;20058;-69
2022/04/28 08:40:00;;;;;;;15.13;6.82;;;;;;;11.93;100.00;95252.72;4811240;29;20167;-70
2022/04/28 08:42:27;;;;;;;5.18;2.17;;;;;;;11.84;100.00;95252.25;4792702;29;20046;-70
2022/04/28 08:45:18;;;;;;;4.75;2.65;;;;;;;11.81;100.00;95251.91;4818387;29;20046;-70
2022/04/28 08:48:15;;;;;;;3.53;1.88;;;;;;;11.90;100.00;95255.78;4808508;29;20046;-70
2022/04/28 08:50:48;;;;;;;3.67;1.98;;;;;;;11.98;100.00;95258.06;4811081;29;20047;-70
2022/04/28 08:53:18;;;;;;;7.18;3.53;;;;;;;11.95;100.00;95253.28;4817511;29;20062;-70
2022/04/28 08:55:47;;;;;;;3.58;2.28;;;;;;;12.01;100.00;95256.81;4804226;29;20141;-70
2022/04/28 08:58:14;;;;;;;3.72;1.40;;;;;;;12.01;100.00;95257.63;4812286;29;20043;-70
2022/04/28 09:00:45;;;;;;;3.63;2.22;;;;;;;12.07;100.00;95244.69;4812978;29;20135;-70
2022/04/28 09:03:24;;;;;;;3.00;2.17;;;;;;;12.32;100.00;95258.25;4813616;29;20115;-70
2022/04/28 09:06:28;;;;;;;2.95;1.73;;;;;;;12.29;100.00;95248.25;4819300;29;20046;-71
2022/04/28 09:09:19;;;;;;;2.95;1.40;;;;;;;12.35;100.00;95249.94;4814419;29;20051;-70
2022/04/28 09:12:06;;;;;;;2.30;1.00;;;;;;;12.34;100.00;95247.56;4814425;29;20053;-70
2022/04/28 09:14:55;;;;;;;2.90;1.90;;;;;;;12.43;100.00;95254.78;4814010;29;20717;-70
2022/04/28 09:17:40;;;;;;;2.13;1.08;;;;;;;12.27;100.00;95245.06;4813855;29;20422;-70
2022/04/28 09:20:13;;;;;;;;;;;;;;;12.41;100.00;95262.06;4798659;29;20066;-70
2022/04/28 09:22:44;;;;;;;1.98;1.23;;;;;;;12.45;100.00;95251.97;4805708;29;19986;-70
2022/04/28 09:25:20;;;;;;;3.13;1.67;;;;;;;12.49;100.00;95252.28;4819726;29;20057;-70
2022/04/28 09:27:51;;;;;;;1.70;1.02;;;;;;;12.52;100.00;95275.34;4805305;29;20055;-70
2022/04/28 09:30:22;;;;;;;2.85;1.83;;;;;;;12.24;100.00;95235.09;4831199;29;20046;-70
2022/04/28 09:33:11;;;;;;;2.97;1.40;;;;;;;12.51;100.00;95263.28;4828397;29;20058;-70
2022/04/28 09:36:16;;;;;;;5.03;1.50;;;;;;;12.49;100.00;95252.28;4808939;29;20062;-70
2022/04/28 09:38:55;;;;;;;2.47;1.40;;;;;;;12.61;100.00;95260.88;4835008;29;20532;-70
2022/04/28 09:44:22;;;;;;;5.63;1.55;;;;;;;12.54;100.00;95262.84;4819301;29;20735;-69
2022/04/28 09:46:54;;;;;;;4.70;1.85;;;;;;;12.63;100.00;95269.28;4806958;29;20132;-69
2022/04/28 09:49:23;;;;;;;1.98;1.27;;;;;;;12.72;100.00;95262.66;4824381;29;20149;-69
2022/04/28 09:52:09;;;;;;;2.10;1.20;;;;;;;12.85;100.00;95260.78;4830922;29;20495;-69
2022/04/28 09:54:56;;;;;;;2.40;1.73;;;;;;;13.00;100.00;95268.91;4794568;29;20066;-70
2022/04/28 09:57:25;;;;;;;2.53;1.27;;;;;;;12.99;100.00;95256.84;4797015;29;20111;-69
2022/04/28 09:59:59;;;;;;;2.30;1.55;;;;;;;12.93;100.00;95263.03;4827062;29;20057;-69
2022/04/28 10:02:27;;;;;;;3.17;2.00;;;;;;;12.90;100.00;95268.72;4815812;29;20051;-69
2022/04/28 10:05:02;;;;;;;3.00;1.70;;;;;;;12.81;100.00;95261.25;4795499;29;20505;-69
2022/04/28 10:07:43;;;;;;;3.03;1.75;;;;;;;12.80;100.00;95258.88;4814629;29;20056;-69
2022/04/28 10:10:10;;;;;;;2.92;1.70;;;;;;;12.91;100.00;95259.84;4812097;29;20053;-69
2022/04/28 10:12:39;;;;;;;1.85;1.30;;;;;;;13.04;100.00;95267.41;4824822;29;20058;-69
2022/04/28 10:15:24;;;;;;;2.58;1.55;;;;;;;13.12;100.00;95267.00;4824941;29;20077;-69
2022/04/28 10:18:04;;;;;;;2.45;1.55;;;;;;;13.18;100.00;95262.66;4800948;29;20050;-69
2022/04/28 10:20:37;;;;;;;2.42;1.50;;;;;;;13.34;100.00;95250.66;4802383;29;20081;-69
2022/04/28 10:32:23;;;;;;;1.80;1.40;;;;;;;13.75;97.09;95253.91;4814946;29;20046;-69
2022/04/28 10:35:07;;;;;;;2.78;1.52;;;;;;;13.83;96.41;95256.13;4814378;29;20517;-69
2022/04/28 10:37:40;;;;;;;1.80;1.30;;;;;;;13.86;95.07;95249.59;4795847;29;20047;-69
2022/04/28 10:40:13;;;;;;;2.20;1.55;;;;;;;13.90;95.18;95246.25;4811773;29;20704;-69
2022/04/28 10:42:40;;;;;;;4.60;1.80;;;;;;;14.05;94.86;95252.75;4797945;29;20058;-69
2022/04/28 10:45:27;;;;;;;3.13;1.50;;;;;;;14.21;93.14;95246.66;4812475;29;20062;-70
2022/04/28 10:48:21;;;;;;;3.17;1.45;;;;;;;14.20;93.46;95241.66;4814016;29;20056;-68
2022/04/28 10:51:00;;;;;;;4.18;1.90;;;;;;;14.53;92.69;95244.16;4811018;29;20722;-71
2022/04/28 10:53:27;;;;;;;3.92;2.35;;;;;;;14.85;92.51;95250.53;4810038;29;20059;-70
2022/04/28 10:55:54;;;;;;;2.85;1.42;;;;;;;14.80;89.82;95240.00;4816155;29;20042;-69
2022/04/28 10:58:25;;;;;;;2.30;1.00;;;;;;;15.19;87.61;95250.34;4810833;29;20737;-69
2022/04/28 11:01:00;;;;;;;3.15;2.05;;;;;;;15.61;86.72;95246.97;4812068;29;20065;-69
2022/04/28 11:03:49;;;;;;;3.88;1.20;;;;;;;15.80;83.96;95250.81;4809315;29;20444;-69
2022/04/28 11:06:21;;;;;;;2.85;1.88;;;;;;;15.95;84.30;95247.47;4807448;29;20042;-69
2022/04/28 11:08:53;;;;;;;3.25;1.75;;;;;;;16.28;83.24;95248.19;4812100;29;20046;-68
2022/04/28 11:11:25;;;;;;;2.70;1.58;;;;;;;16.57;81.31;95235.41;4814647;29;20058;-69
2022/04/28 11:13:57;;;;;;;2.35;1.05;;;;;;;16.94;79.13;95237.13;4812541;29;20050;-69
2022/04/28 11:16:28;;;;;;;2.88;1.83;;;;;;;16.73;78.43;95240.72;4812800;29;20062;-69
2022/04/28 11:18:55;;;;;;;2.45;1.20;;;;;;;16.94;78.04;95246.84;4812787;29;20069;-69
2022/04/28 11:21:22;;;;;;;2.10;1.17;;;;;;;17.14;77.13;95240.81;4815922;29;20050;-69
2022/04/28 11:23:51;;;;;;;3.15;1.80;;;;;;;17.27;77.65;95245.56;4808404;29;20061;-69
2022/04/28 11:26:32;;;;;;;2.03;1.13;;;;;;;17.38;76.71;95241.88;4815394;29;20058;-70
2022/04/28 11:34:22;;;;;;;3.00;1.40;;;;;;;17.88;73.79;95243.97;4819962;29;20056;-71
2022/04/28 11:36:49;;;;;;;3.53;1.65;;;;;;;17.71;73.92;95244.25;4822440;23;20085;-69
2022/04/28 11:39:16;;;;;;;2.15;1.58;;;;;;;17.70;74.70;95242.66;4800440;29;20073;-69
2022/04/28 11:41:43;;;;;;;2.53;1.45;;;;;;;17.75;74.53;95240.00;4799962;29;20062;-69
2022/04/28 11:44:12;;;;;;;3.83;1.73;;;;;;;17.76;74.43;95231.84;4786786;29;20051;-68
2022/04/28 11:46:50;;;;;;;3.25;1.88;;;;;;;17.98;73.98;95237.91;4813725;29;20071;-69
2022/04/28 11:49:18;;;;;;;6.10;1.58;;;;;;;18.41;72.62;95236.44;4814293;29;20114;-70
2022/04/28 11:51:46;;;;;;;3.85;1.88;;;;;;;18.30;71.73;95232.28;4811523;29;20042;-70
2022/04/28 11:54:27;;;;;;;1.77;1.35;;;;;;;18.11;71.49;95227.59;4811836;29;20055;-69
2022/04/28 11:57:08;;;;;;;5.45;2.42;;;;;;;17.86;73.90;95227.63;4819409;29;20057;-69
2022/04/28 11:59:38;;;;;;;1.92;0.85;;;;;;;17.41;76.82;95218.72;4796024;29;20055;-69
2022/04/28 12:02:32;;;;;;;1.60;1.00;;;;;;;17.50;75.74;95227.66;4800328;29;20055;-69
2022/04/28 12:05:10;;;;;;;6.88;1.35;;;;;;;17.22;77.04;95211.34;4798079;29;20571;-70
2022/04/28 12:07:37;;;;;;;2.35;1.50;;;;;;;17.41;76.23;95221.34;4803145;29;20718;-70
2022/04/28 12:15:36;;;;;;;2.78;0.85;;;;;;;17.83;73.64;95204.44;4802786;29;20103;-70
2022/04/28 12:21:13;;;;;;;3.47;1.30;;;;;;;18.19;72.93;95222.81;4803305;29;20053;-71
2022/04/28 12:23:46;;;;;;;2.90;1.58;;;;;;;18.34;73.22;95214.84;4797909;29;20069;-70
2022/04/28 12:26:20;;;;;;;3.47;1.80;;;;;;;18.34;73.27;95199.03;4809914;29;20098;-70
2022/04/28 12:28:48;;;;;;;2.05;1.27;;;;;;;18.23;72.21;95213.31;4813392;29;20073;-69
2022/04/28 12:31:25;;;;;;;5.97;1.60;;;;;;;18.29;71.53;95201.69;4799189;29;20053;-69
2022/04/28 12:34:22;;;;;;;3.03;1.95;;;;;;;18.34;71.03;95204.28;4802767;29;20062;-68
2022/04/28 12:37:00;;;;;;;2.38;1.75;;;;;;;17.88;72.60;95212.34;4813456;29;20077;-69
2022/04/28 12:40:02;;;;;;;4.93;1.60;;;;;;;17.65;74.19;95214.47;4807641;29;20119;-69
2022/04/28 12:42:46;;;;;;;2.72;2.03;;;;;;;17.30;74.71;95207.41;4810854;29;20444;-68
2022/04/28 12:45:13;;;;;;;2.78;1.77;;;;;;;17.13;75.88;95197.13;4811530;29;20054;-69